sensor_id;sensor_type;location;lat;lon;timestamp;P1;durP1;ratioP1;P2;durP2;ratioP2
22480;SDS011;11407;56.964;-2.212;2022-09-01T00:02:05;3.00;;;2.00;;
22480;SDS011;11407;56.964;-2.212;2022-09-01T00:04:33;3.47;;;2.07;;
22480;SDS011;11407;56.964;-2.212;2022-09-01T00:07:07;2.63;;;1.80;;
22480;SDS011;11407;56.964;-2.212;2022-09-01T00:09:33;4.00;;;1.97;;
22480;SDS011;11407;56.964;-2.212;2022-09-01T00:11:59;3.33;;;2.20;;
22480;SDS011;11407;56.964;-2.212;2022-09-01T00:14:27;2.87;;;2.00;;
22480;SDS011;11407;56.964;-2.212;2022-09-01T00:16:55;3.83;;;2.07;;
22480;SDS011;11407;56.964;-2.212;2022-09-01T00:19:22;4.10;;;1.80;;
22480;SDS011;11407;56.964;-2.212;2022-09-01T00:21:48;2.07;;;1.67;;
22480;SDS011;11407;56.964;-2.212;2022-09-01T00:24:14;1.93;;;1.60;;
22480;SDS011;11407;56.964;-2.212;2022-09-01T00:26:41;2.40;;;1.80;;
22480;SDS011;11407;56.964;-2.212;2022-09-01T00:29:07;3.37;;;1.70;;
22480;SDS011;11407;56.964;-2.212;2022-09-01T00:31:33;2.47;;;1.80;;
22480;SDS011;11407;56.964;-2.212;2022-09-01T00:33:59;2.30;;;1.60;;
22480;SDS011;11407;56.964;-2.212;2022-09-01T00:36:25;2.97;;;2.20;;
22480;SDS011;11407;56.964;-2.212;2022-09-01T00:38:51;3.33;;;2.10;;
22480;SDS011;11407;56.964;-2.212;2022-09-01T00:41:17;2.57;;;1.80;;
22480;SDS011;11407;56.964;-2.212;2022-09-01T00:43:46;4.50;;;1.80;;
22480;SDS011;11407;56.964;-2.212;2022-09-01T00:46:21;3.20;;;2.00;;
22480;SDS011;11407;56.964;-2.212;2022-09-01T00:48:50;2.30;;;1.67;;
22480;SDS011;11407;56.964;-2.212;2022-09-01T00:51:20;3.03;;;1.90;;
22480;SDS011;11407;56.964;-2.212;2022-09-01T00:53:45;2.47;;;1.77;;
22480;SDS011;11407;56.964;-2.212;2022-09-01T00:56:11;2.27;;;1.97;;
22480;SDS011;11407;56.964;-2.212;2022-09-01T00:58:38;2.73;;;1.77;;
22480;SDS011;11407;56.964;-2.212;2022-09-01T01:01:08;1.50;;;1.40;;
22480;SDS011;11407;56.964;-2.212;2022-09-01T01:03:39;3.30;;;1.90;;
22480;SDS011;11407;56.964;-2.212;2022-09-01T01:06:11;2.77;;;1.70;;
22480;SDS011;11407;56.964;-2.212;2022-09-01T01:08:40;3.57;;;1.80;;
22480;SDS011;11407;56.964;-2.212;2022-09-01T01:11:15;2.73;;;1.77;;
22480;SDS011;11407;56.964;-2.212;2022-09-01T01:14:01;3.47;;;1.50;;
22480;SDS011;11407;56.964;-2.212;2022-09-01T01:16:39;2.50;;;1.70;;
22480;SDS011;11407;56.964;-2.212;2022-09-01T01:22:18;2.50;;;1.90;;
22480;SDS011;11407;56.964;-2.212;2022-09-01T01:25:17;3.07;;;1.90;;
22480;SDS011;11407;56.964;-2.212;2022-09-01T01:27:43;2.93;;;2.10;;
22480;SDS011;11407;56.964;-2.212;2022-09-01T01:30:09;3.13;;;2.00;;
22480;SDS011;11407;56.964;-2.212;2022-09-01T01:32:37;4.87;;;1.97;;
22480;SDS011;11407;56.964;-2.212;2022-09-01T01:35:07;3.33;;;2.13;;
22480;SDS011;11407;56.964;-2.212;2022-09-01T01:37:37;3.07;;;2.20;;
22480;SDS011;11407;56.964;-2.212;2022-09-01T01:40:03;3.30;;;2.00;;
22480;SDS011;11407;56.964;-2.212;2022-09-01T01:42:31;2.30;;;1.90;;
22480;SDS011;11407;56.964;-2.212;2022-09-01T01:44:57;2.30;;;1.90;;
22480;SDS011;11407;56.964;-2.212;2022-09-01T01:47:22;2.27;;;1.70;;
22480;SDS011;11407;56.964;-2.212;2022-09-01T01:49:49;2.83;;;1.80;;
22480;SDS011;11407;56.964;-2.212;2022-09-01T01:52:14;3.10;;;2.40;;
22480;SDS011;11407;56.964;-2.212;2022-09-01T01:54:41;2.50;;;1.87;;
22480;SDS011;11407;56.964;-2.212;2022-09-01T01:57:10;4.17;;;2.37;;
22480;SDS011;11407;56.964;-2.212;2022-09-01T01:59:35;2.23;;;1.70;;
22480;SDS011;11407;56.964;-2.212;2022-09-01T02:02:04;2.30;;;1.93;;
22480;SDS011;11407;56.964;-2.212;2022-09-01T02:04:33;3.20;;;2.20;;
22480;SDS011;11407;56.964;-2.212;2022-09-01T02:06:59;3.77;;;1.93;;
22480;SDS011;11407;56.964;-2.212;2022-09-01T02:09:25;2.30;;;2.03;;
22480;SDS011;11407;56.964;-2.212;2022-09-01T02:11:51;3.23;;;2.10;;
22480;SDS011;11407;56.964;-2.212;2022-09-01T02:14:20;2.60;;;2.00;;
22480;SDS011;11407;56.964;-2.212;2022-09-01T02:16:46;2.97;;;2.20;;
22480;SDS011;11407;56.964;-2.212;2022-09-01T02:19:11;2.93;;;2.03;;
22480;SDS011;11407;56.964;-2.212;2022-09-01T02:21:37;3.00;;;2.57;;
22480;SDS011;11407;56.964;-2.212;2022-09-01T02:24:08;2.93;;;2.17;;
22480;SDS011;11407;56.964;-2.212;2022-09-01T02:26:36;4.27;;;2.10;;
22480;SDS011;11407;56.964;-2.212;2022-09-01T02:29:09;5.10;;;2.00;;
22480;SDS011;11407;56.964;-2.212;2022-09-01T02:31:42;2.60;;;1.90;;
22480;SDS011;11407;56.964;-2.212;2022-09-01T02:34:09;2.60;;;2.10;;
22480;SDS011;11407;56.964;-2.212;2022-09-01T02:36:38;2.67;;;2.10;;
22480;SDS011;11407;56.964;-2.212;2022-09-01T02:39:08;2.73;;;2.40;;
22480;SDS011;11407;56.964;-2.212;2022-09-01T02:41:34;3.53;;;2.23;;
22480;SDS011;11407;56.964;-2.212;2022-09-01T02:44:01;2.40;;;2.00;;
22480;SDS011;11407;56.964;-2.212;2022-09-01T02:46:39;2.87;;;2.00;;
22480;SDS011;11407;56.964;-2.212;2022-09-01T02:49:11;2.37;;;2.10;;
22480;SDS011;11407;56.964;-2.212;2022-09-01T02:51:47;2.07;;;1.70;;
22480;SDS011;11407;56.964;-2.212;2022-09-01T02:54:18;2.10;;;1.67;;
22480;SDS011;11407;56.964;-2.212;2022-09-01T02:56:46;2.80;;;1.80;;
22480;SDS011;11407;56.964;-2.212;2022-09-01T02:59:16;3.17;;;2.00;;
22480;SDS011;11407;56.964;-2.212;2022-09-01T03:01:46;2.77;;;2.13;;
22480;SDS011;11407;56.964;-2.212;2022-09-01T03:04:13;2.17;;;1.70;;
22480;SDS011;11407;56.964;-2.212;2022-09-01T03:06:39;2.63;;;2.00;;
22480;SDS011;11407;56.964;-2.212;2022-09-01T03:09:06;3.00;;;1.57;;
22480;SDS011;11407;56.964;-2.212;2022-09-01T03:11:34;3.50;;;1.80;;
22480;SDS011;11407;56.964;-2.212;2022-09-01T03:14:04;2.47;;;1.83;;
22480;SDS011;11407;56.964;-2.212;2022-09-01T03:16:31;2.77;;;1.80;;
22480;SDS011;11407;56.964;-2.212;2022-09-01T03:18:57;4.17;;;1.97;;
22480;SDS011;11407;56.964;-2.212;2022-09-01T03:21:23;2.73;;;1.90;;
22480;SDS011;11407;56.964;-2.212;2022-09-01T03:23:49;2.27;;;1.97;;
22480;SDS011;11407;56.964;-2.212;2022-09-01T03:26:17;3.37;;;1.97;;
22480;SDS011;11407;56.964;-2.212;2022-09-01T03:28:46;3.73;;;1.83;;
22480;SDS011;11407;56.964;-2.212;2022-09-01T03:31:12;2.20;;;1.70;;
22480;SDS011;11407;56.964;-2.212;2022-09-01T03:33:38;2.10;;;1.90;;
22480;SDS011;11407;56.964;-2.212;2022-09-01T03:36:04;3.73;;;1.80;;
22480;SDS011;11407;56.964;-2.212;2022-09-01T03:38:30;2.07;;;1.80;;
22480;SDS011;11407;56.964;-2.212;2022-09-01T03:41:00;1.93;;;1.73;;
22480;SDS011;11407;56.964;-2.212;2022-09-01T03:43:28;2.33;;;1.80;;
22480;SDS011;11407;56.964;-2.212;2022-09-01T03:45:55;1.93;;;1.67;;
22480;SDS011;11407;56.964;-2.212;2022-09-01T03:48:24;3.20;;;1.80;;
22480;SDS011;11407;56.964;-2.212;2022-09-01T03:50:53;2.83;;;1.80;;
22480;SDS011;11407;56.964;-2.212;2022-09-01T03:53:21;2.20;;;1.73;;
22480;SDS011;11407;56.964;-2.212;2022-09-01T03:55:49;3.63;;;1.70;;
22480;SDS011;11407;56.964;-2.212;2022-09-01T03:58:15;1.57;;;1.43;;
22480;SDS011;11407;56.964;-2.212;2022-09-01T04:00:44;2.07;;;1.80;;
22480;SDS011;11407;56.964;-2.212;2022-09-01T04:03:15;2.83;;;1.80;;
22480;SDS011;11407;56.964;-2.212;2022-09-01T04:05:45;2.20;;;1.90;;
22480;SDS011;11407;56.964;-2.212;2022-09-01T04:08:12;5.47;;;1.60;;
22480;SDS011;11407;56.964;-2.212;2022-09-01T04:10:42;2.00;;;1.80;;
22480;SDS011;11407;56.964;-2.212;2022-09-01T04:13:16;2.10;;;1.90;;
22480;SDS011;11407;56.964;-2.212;2022-09-01T04:15:44;2.23;;;1.80;;
22480;SDS011;11407;56.964;-2.212;2022-09-01T04:18:10;3.17;;;2.03;;
22480;SDS011;11407;56.964;-2.212;2022-09-01T04:20:45;2.20;;;1.80;;
22480;SDS011;11407;56.964;-2.212;2022-09-01T04:23:14;4.47;;;2.37;;
22480;SDS011;11407;56.964;-2.212;2022-09-01T04:25:41;3.90;;;1.90;;
22480;SDS011;11407;56.964;-2.212;2022-09-01T04:28:06;2.90;;;1.90;;
22480;SDS011;11407;56.964;-2.212;2022-09-01T04:30:38;2.07;;;1.80;;
22480;SDS011;11407;56.964;-2.212;2022-09-01T04:33:06;2.77;;;2.10;;
22480;SDS011;11407;56.964;-2.212;2022-09-01T04:35:38;5.17;;;1.87;;
22480;SDS011;11407;56.964;-2.212;2022-09-01T04:38:04;2.17;;;1.83;;
22480;SDS011;11407;56.964;-2.212;2022-09-01T04:40:32;2.47;;;1.87;;
22480;SDS011;11407;56.964;-2.212;2022-09-01T04:43:03;3.00;;;2.30;;
22480;SDS011;11407;56.964;-2.212;2022-09-01T04:45:29;1.90;;;1.63;;
22480;SDS011;11407;56.964;-2.212;2022-09-01T04:47:56;1.87;;;1.63;;
22480;SDS011;11407;56.964;-2.212;2022-09-01T04:50:23;3.83;;;1.57;;
22480;SDS011;11407;56.964;-2.212;2022-09-01T04:52:51;3.30;;;2.00;;
22480;SDS011;11407;56.964;-2.212;2022-09-01T04:55:20;3.00;;;1.80;;
22480;SDS011;11407;56.964;-2.212;2022-09-01T04:57:46;3.50;;;2.17;;
22480;SDS011;11407;56.964;-2.212;2022-09-01T05:00:16;2.67;;;1.80;;
22480;SDS011;11407;56.964;-2.212;2022-09-01T05:02:48;2.20;;;2.00;;
22480;SDS011;11407;56.964;-2.212;2022-09-01T05:05:16;2.80;;;2.10;;
22480;SDS011;11407;56.964;-2.212;2022-09-01T05:07:42;3.23;;;2.00;;
22480;SDS011;11407;56.964;-2.212;2022-09-01T05:10:08;1.70;;;1.50;;
22480;SDS011;11407;56.964;-2.212;2022-09-01T05:12:34;2.33;;;1.80;;
22480;SDS011;11407;56.964;-2.212;2022-09-01T05:15:00;2.10;;;1.90;;
22480;SDS011;11407;56.964;-2.212;2022-09-01T05:17:27;2.67;;;2.00;;
22480;SDS011;11407;56.964;-2.212;2022-09-01T05:19:53;2.10;;;1.90;;
22480;SDS011;11407;56.964;-2.212;2022-09-01T05:22:20;1.73;;;1.63;;
22480;SDS011;11407;56.964;-2.212;2022-09-01T05:24:46;2.40;;;1.60;;
22480;SDS011;11407;56.964;-2.212;2022-09-01T05:27:11;2.20;;;1.60;;
22480;SDS011;11407;56.964;-2.212;2022-09-01T05:29:38;2.40;;;1.73;;
22480;SDS011;11407;56.964;-2.212;2022-09-01T05:32:05;2.40;;;2.03;;
22480;SDS011;11407;56.964;-2.212;2022-09-01T05:34:34;2.27;;;1.73;;
22480;SDS011;11407;56.964;-2.212;2022-09-01T05:37:01;1.77;;;1.33;;
22480;SDS011;11407;56.964;-2.212;2022-09-01T05:39:27;2.10;;;1.70;;
22480;SDS011;11407;56.964;-2.212;2022-09-01T05:41:53;2.67;;;1.70;;
22480;SDS011;11407;56.964;-2.212;2022-09-01T05:44:21;4.70;;;1.77;;
22480;SDS011;11407;56.964;-2.212;2022-09-01T05:46:47;2.47;;;2.00;;
22480;SDS011;11407;56.964;-2.212;2022-09-01T05:49:13;1.60;;;1.50;;
22480;SDS011;11407;56.964;-2.212;2022-09-01T05:51:41;2.47;;;1.77;;
22480;SDS011;11407;56.964;-2.212;2022-09-01T05:54:08;3.30;;;1.97;;
22480;SDS011;11407;56.964;-2.212;2022-09-01T05:56:35;2.03;;;1.90;;
22480;SDS011;11407;56.964;-2.212;2022-09-01T05:59:04;2.67;;;1.90;;
22480;SDS011;11407;56.964;-2.212;2022-09-01T06:01:30;2.60;;;2.00;;
22480;SDS011;11407;56.964;-2.212;2022-09-01T06:03:57;1.80;;;1.60;;
22480;SDS011;11407;56.964;-2.212;2022-09-01T06:06:25;2.00;;;1.70;;
22480;SDS011;11407;56.964;-2.212;2022-09-01T06:08:53;2.37;;;1.83;;
22480;SDS011;11407;56.964;-2.212;2022-09-01T06:11:24;2.57;;;1.90;;
22480;SDS011;11407;56.964;-2.212;2022-09-01T06:13:51;2.33;;;1.90;;
22480;SDS011;11407;56.964;-2.212;2022-09-01T06:16:21;2.33;;;2.13;;
22480;SDS011;11407;56.964;-2.212;2022-09-01T06:18:48;2.77;;;2.20;;
22480;SDS011;11407;56.964;-2.212;2022-09-01T06:21:17;2.90;;;1.90;;
22480;SDS011;11407;56.964;-2.212;2022-09-01T06:23:44;4.23;;;1.80;;
22480;SDS011;11407;56.964;-2.212;2022-09-01T06:26:20;1.97;;;1.77;;
22480;SDS011;11407;56.964;-2.212;2022-09-01T06:28:57;3.07;;;1.90;;
22480;SDS011;11407;56.964;-2.212;2022-09-01T06:31:28;1.80;;;1.60;;
22480;SDS011;11407;56.964;-2.212;2022-09-01T06:33:58;2.63;;;2.00;;
22480;SDS011;11407;56.964;-2.212;2022-09-01T06:36:25;2.80;;;1.60;;
22480;SDS011;11407;56.964;-2.212;2022-09-01T06:38:51;2.30;;;2.10;;
22480;SDS011;11407;56.964;-2.212;2022-09-01T06:41:19;2.27;;;1.87;;
22480;SDS011;11407;56.964;-2.212;2022-09-01T06:43:46;2.67;;;2.20;;
22480;SDS011;11407;56.964;-2.212;2022-09-01T06:46:13;2.67;;;2.30;;
22480;SDS011;11407;56.964;-2.212;2022-09-01T06:48:40;2.17;;;1.90;;
22480;SDS011;11407;56.964;-2.212;2022-09-01T06:51:11;2.47;;;1.90;;
22480;SDS011;11407;56.964;-2.212;2022-09-01T06:53:42;3.23;;;1.73;;
22480;SDS011;11407;56.964;-2.212;2022-09-01T06:56:09;2.50;;;2.13;;
22480;SDS011;11407;56.964;-2.212;2022-09-01T06:58:38;4.07;;;2.20;;
22480;SDS011;11407;56.964;-2.212;2022-09-01T07:01:08;2.40;;;2.00;;
22480;SDS011;11407;56.964;-2.212;2022-09-01T07:03:39;5.37;;;2.50;;
22480;SDS011;11407;56.964;-2.212;2022-09-01T07:06:06;2.90;;;2.57;;
22480;SDS011;11407;56.964;-2.212;2022-09-01T07:08:31;4.23;;;2.30;;
22480;SDS011;11407;56.964;-2.212;2022-09-01T07:11:04;4.10;;;2.23;;
22480;SDS011;11407;56.964;-2.212;2022-09-01T07:13:40;2.63;;;2.17;;
22480;SDS011;11407;56.964;-2.212;2022-09-01T07:16:06;3.10;;;2.30;;
22480;SDS011;11407;56.964;-2.212;2022-09-01T07:18:32;3.03;;;2.60;;
22480;SDS011;11407;56.964;-2.212;2022-09-01T07:20:58;4.90;;;2.37;;
22480;SDS011;11407;56.964;-2.212;2022-09-01T07:23:24;5.70;;;2.67;;
22480;SDS011;11407;56.964;-2.212;2022-09-01T07:25:50;3.30;;;2.73;;
22480;SDS011;11407;56.964;-2.212;2022-09-01T07:28:20;3.23;;;2.20;;
22480;SDS011;11407;56.964;-2.212;2022-09-01T07:30:49;4.07;;;2.50;;
22480;SDS011;11407;56.964;-2.212;2022-09-01T07:33:17;2.47;;;2.10;;
22480;SDS011;11407;56.964;-2.212;2022-09-01T07:35:47;3.13;;;1.90;;
22480;SDS011;11407;56.964;-2.212;2022-09-01T07:38:13;2.43;;;2.10;;
22480;SDS011;11407;56.964;-2.212;2022-09-01T07:40:43;2.10;;;1.90;;
22480;SDS011;11407;56.964;-2.212;2022-09-01T07:43:16;5.83;;;2.20;;
22480;SDS011;11407;56.964;-2.212;2022-09-01T07:45:49;2.13;;;1.93;;
22480;SDS011;11407;56.964;-2.212;2022-09-01T07:48:17;2.33;;;2.00;;
22480;SDS011;11407;56.964;-2.212;2022-09-01T07:50:47;2.37;;;2.17;;
22480;SDS011;11407;56.964;-2.212;2022-09-01T07:53:17;3.23;;;2.57;;
22480;SDS011;11407;56.964;-2.212;2022-09-01T07:55:56;2.47;;;2.23;;
22480;SDS011;11407;56.964;-2.212;2022-09-01T07:58:24;3.50;;;2.20;;
22480;SDS011;11407;56.964;-2.212;2022-09-01T08:00:51;1.80;;;1.60;;
22480;SDS011;11407;56.964;-2.212;2022-09-01T08:03:19;2.87;;;1.90;;
22480;SDS011;11407;56.964;-2.212;2022-09-01T08:05:48;4.00;;;1.70;;
22480;SDS011;11407;56.964;-2.212;2022-09-01T08:08:17;4.73;;;1.93;;
22480;SDS011;11407;56.964;-2.212;2022-09-01T08:10:44;2.27;;;1.80;;
22480;SDS011;11407;56.964;-2.212;2022-09-01T08:13:11;2.10;;;1.90;;
22480;SDS011;11407;56.964;-2.212;2022-09-01T08:15:38;3.90;;;2.40;;
22480;SDS011;11407;56.964;-2.212;2022-09-01T08:18:05;2.83;;;1.70;;
22480;SDS011;11407;56.964;-2.212;2022-09-01T08:20:31;2.43;;;1.83;;
22480;SDS011;11407;56.964;-2.212;2022-09-01T08:23:03;2.20;;;1.77;;
22480;SDS011;11407;56.964;-2.212;2022-09-01T08:25:29;2.90;;;1.83;;
22480;SDS011;11407;56.964;-2.212;2022-09-01T08:27:55;2.23;;;1.60;;
22480;SDS011;11407;56.964;-2.212;2022-09-01T08:30:21;2.10;;;1.80;;
22480;SDS011;11407;56.964;-2.212;2022-09-01T08:32:47;2.27;;;1.57;;
22480;SDS011;11407;56.964;-2.212;2022-09-01T08:35:13;2.10;;;1.53;;
22480;SDS011;11407;56.964;-2.212;2022-09-01T08:37:40;2.47;;;1.60;;
22480;SDS011;11407;56.964;-2.212;2022-09-01T08:40:07;1.80;;;1.30;;
22480;SDS011;11407;56.964;-2.212;2022-09-01T08:42:42;1.97;;;1.40;;
22480;SDS011;11407;56.964;-2.212;2022-09-01T08:45:22;1.77;;;1.40;;
22480;SDS011;11407;56.964;-2.212;2022-09-01T08:47:54;2.70;;;1.50;;
22480;SDS011;11407;56.964;-2.212;2022-09-01T08:50:22;2.23;;;1.53;;
22480;SDS011;11407;56.964;-2.212;2022-09-01T08:52:54;2.17;;;1.67;;
22480;SDS011;11407;56.964;-2.212;2022-09-01T08:55:31;3.40;;;1.93;;
22480;SDS011;11407;56.964;-2.212;2022-09-01T08:58:02;2.20;;;1.60;;
22480;SDS011;11407;56.964;-2.212;2022-09-01T09:00:30;2.63;;;1.60;;
22480;SDS011;11407;56.964;-2.212;2022-09-01T09:14:20;2.90;;;1.70;;
22480;SDS011;11407;56.964;-2.212;2022-09-01T09:17:09;2.40;;;2.10;;
22480;SDS011;11407;56.964;-2.212;2022-09-01T09:19:41;1.90;;;1.33;;
22480;SDS011;11407;56.964;-2.212;2022-09-01T09:22:10;3.23;;;1.80;;
22480;SDS011;11407;56.964;-2.212;2022-09-01T09:29:52;1.93;;;1.60;;
22480;SDS011;11407;56.964;-2.212;2022-09-01T09:32:23;2.13;;;1.67;;
22480;SDS011;11407;56.964;-2.212;2022-09-01T09:35:26;2.30;;;1.63;;
22480;SDS011;11407;56.964;-2.212;2022-09-01T09:41:04;8.03;;;2.40;;
22480;SDS011;11407;56.964;-2.212;2022-09-01T09:43:42;2.13;;;1.93;;
22480;SDS011;11407;56.964;-2.212;2022-09-01T09:46:19;2.13;;;1.90;;
22480;SDS011;11407;56.964;-2.212;2022-09-01T09:54:22;2.03;;;1.50;;
22480;SDS011;11407;56.964;-2.212;2022-09-01T09:59:42;2.73;;;1.80;;
22480;SDS011;11407;56.964;-2.212;2022-09-01T10:02:16;2.03;;;1.30;;
22480;SDS011;11407;56.964;-2.212;2022-09-01T10:04:44;3.37;;;2.20;;
22480;SDS011;11407;56.964;-2.212;2022-09-01T10:07:31;5.00;;;2.60;;
22480;SDS011;11407;56.964;-2.212;2022-09-01T10:10:25;2.77;;;2.40;;
22480;SDS011;11407;56.964;-2.212;2022-09-01T10:13:15;4.00;;;2.77;;
22480;SDS011;11407;56.964;-2.212;2022-09-01T10:15:45;3.50;;;3.17;;
22480;SDS011;11407;56.964;-2.212;2022-09-01T10:18:15;3.10;;;2.10;;
22480;SDS011;11407;56.964;-2.212;2022-09-01T10:23:19;2.60;;;1.63;;
22480;SDS011;11407;56.964;-2.212;2022-09-01T10:25:44;2.90;;;2.03;;
22480;SDS011;11407;56.964;-2.212;2022-09-01T10:28:15;2.77;;;1.50;;
22480;SDS011;11407;56.964;-2.212;2022-09-01T10:30:43;2.77;;;1.47;;
22480;SDS011;11407;56.964;-2.212;2022-09-01T10:33:13;2.63;;;1.50;;
22480;SDS011;11407;56.964;-2.212;2022-09-01T10:35:41;4.27;;;1.60;;
22480;SDS011;11407;56.964;-2.212;2022-09-01T10:38:16;2.00;;;1.43;;
22480;SDS011;11407;56.964;-2.212;2022-09-01T10:40:45;1.70;;;1.30;;
22480;SDS011;11407;56.964;-2.212;2022-09-01T10:43:21;2.50;;;1.50;;
22480;SDS011;11407;56.964;-2.212;2022-09-01T10:45:53;2.13;;;1.50;;
22480;SDS011;11407;56.964;-2.212;2022-09-01T10:50:46;2.17;;;1.40;;
22480;SDS011;11407;56.964;-2.212;2022-09-01T11:01:08;2.13;;;1.90;;
22480;SDS011;11407;56.964;-2.212;2022-09-01T11:03:35;5.70;;;2.03;;
22480;SDS011;11407;56.964;-2.212;2022-09-01T11:06:03;3.50;;;2.10;;
22480;SDS011;11407;56.964;-2.212;2022-09-01T11:13:48;3.40;;;2.40;;
22480;SDS011;11407;56.964;-2.212;2022-09-01T11:18:50;2.47;;;2.10;;
22480;SDS011;11407;56.964;-2.212;2022-09-01T11:21:26;3.43;;;2.70;;
22480;SDS011;11407;56.964;-2.212;2022-09-01T11:26:56;3.57;;;2.20;;
22480;SDS011;11407;56.964;-2.212;2022-09-01T11:32:24;2.90;;;1.83;;
22480;SDS011;11407;56.964;-2.212;2022-09-01T11:34:56;3.13;;;2.10;;
22480;SDS011;11407;56.964;-2.212;2022-09-01T11:37:23;2.90;;;2.10;;
22480;SDS011;11407;56.964;-2.212;2022-09-01T11:39:51;3.90;;;2.03;;
22480;SDS011;11407;56.964;-2.212;2022-09-01T11:45:17;2.10;;;1.90;;
22480;SDS011;11407;56.964;-2.212;2022-09-01T11:47:46;3.00;;;2.10;;
22480;SDS011;11407;56.964;-2.212;2022-09-01T11:50:18;3.87;;;2.33;;
22480;SDS011;11407;56.964;-2.212;2022-09-01T11:55:37;3.30;;;2.20;;
22480;SDS011;11407;56.964;-2.212;2022-09-01T11:58:08;3.07;;;2.47;;
22480;SDS011;11407;56.964;-2.212;2022-09-01T12:00:37;3.40;;;2.13;;
22480;SDS011;11407;56.964;-2.212;2022-09-01T12:03:09;5.40;;;2.30;;
22480;SDS011;11407;56.964;-2.212;2022-09-01T12:05:45;4.03;;;2.00;;
22480;SDS011;11407;56.964;-2.212;2022-09-01T12:08:15;2.97;;;2.17;;
22480;SDS011;11407;56.964;-2.212;2022-09-01T12:10:43;2.27;;;1.93;;
22480;SDS011;11407;56.964;-2.212;2022-09-01T12:13:19;2.33;;;1.90;;
22480;SDS011;11407;56.964;-2.212;2022-09-01T12:15:53;4.97;;;2.50;;
22480;SDS011;11407;56.964;-2.212;2022-09-01T12:18:23;2.83;;;1.97;;
22480;SDS011;11407;56.964;-2.212;2022-09-01T12:20:52;4.80;;;2.47;;
22480;SDS011;11407;56.964;-2.212;2022-09-01T12:25:58;3.57;;;1.77;;
22480;SDS011;11407;56.964;-2.212;2022-09-01T12:28:27;3.17;;;2.10;;
22480;SDS011;11407;56.964;-2.212;2022-09-01T12:31:02;4.27;;;2.30;;
22480;SDS011;11407;56.964;-2.212;2022-09-01T12:33:32;4.57;;;2.13;;
22480;SDS011;11407;56.964;-2.212;2022-09-01T12:38:40;3.50;;;2.07;;
22480;SDS011;11407;56.964;-2.212;2022-09-01T12:49:58;2.67;;;1.80;;
22480;SDS011;11407;56.964;-2.212;2022-09-01T12:52:28;1.60;;;1.50;;
22480;SDS011;11407;56.964;-2.212;2022-09-01T13:07:59;2.77;;;1.77;;
22480;SDS011;11407;56.964;-2.212;2022-09-01T13:10:28;3.30;;;1.63;;
22480;SDS011;11407;56.964;-2.212;2022-09-01T13:12:58;2.40;;;1.70;;
22480;SDS011;11407;56.964;-2.212;2022-09-01T13:15:24;3.17;;;1.70;;
22480;SDS011;11407;56.964;-2.212;2022-09-01T13:17:50;4.00;;;1.93;;
22480;SDS011;11407;56.964;-2.212;2022-09-01T13:20:16;3.37;;;1.80;;
22480;SDS011;11407;56.964;-2.212;2022-09-01T13:22:42;2.43;;;1.83;;
22480;SDS011;11407;56.964;-2.212;2022-09-01T13:25:09;4.23;;;1.73;;
22480;SDS011;11407;56.964;-2.212;2022-09-01T13:27:40;2.00;;;1.80;;
22480;SDS011;11407;56.964;-2.212;2022-09-01T13:30:08;2.80;;;2.00;;
22480;SDS011;11407;56.964;-2.212;2022-09-01T13:32:35;4.53;;;2.23;;
22480;SDS011;11407;56.964;-2.212;2022-09-01T13:35:02;3.70;;;2.27;;
22480;SDS011;11407;56.964;-2.212;2022-09-01T13:37:27;7.00;;;2.43;;
22480;SDS011;11407;56.964;-2.212;2022-09-01T13:39:53;5.23;;;2.80;;
22480;SDS011;11407;56.964;-2.212;2022-09-01T13:42:18;3.57;;;2.07;;
22480;SDS011;11407;56.964;-2.212;2022-09-01T13:44:44;2.80;;;2.10;;
22480;SDS011;11407;56.964;-2.212;2022-09-01T13:47:11;4.63;;;2.30;;
22480;SDS011;11407;56.964;-2.212;2022-09-01T13:49:36;3.90;;;2.00;;
22480;SDS011;11407;56.964;-2.212;2022-09-01T13:52:02;2.83;;;1.90;;
22480;SDS011;11407;56.964;-2.212;2022-09-01T13:54:28;2.93;;;2.00;;
22480;SDS011;11407;56.964;-2.212;2022-09-01T13:56:53;2.70;;;1.73;;
22480;SDS011;11407;56.964;-2.212;2022-09-01T13:59:18;5.17;;;2.30;;
22480;SDS011;11407;56.964;-2.212;2022-09-01T14:01:44;3.17;;;1.93;;
22480;SDS011;11407;56.964;-2.212;2022-09-01T14:04:10;2.60;;;1.70;;
22480;SDS011;11407;56.964;-2.212;2022-09-01T14:06:39;4.30;;;1.63;;
22480;SDS011;11407;56.964;-2.212;2022-09-01T14:09:11;3.10;;;2.00;;
22480;SDS011;11407;56.964;-2.212;2022-09-01T14:11:38;3.10;;;2.00;;
22480;SDS011;11407;56.964;-2.212;2022-09-01T14:14:03;3.47;;;1.70;;
22480;SDS011;11407;56.964;-2.212;2022-09-01T14:16:29;4.03;;;2.20;;
22480;SDS011;11407;56.964;-2.212;2022-09-01T14:18:54;4.30;;;1.80;;
22480;SDS011;11407;56.964;-2.212;2022-09-01T14:21:20;3.63;;;1.80;;
22480;SDS011;11407;56.964;-2.212;2022-09-01T14:23:45;2.63;;;1.60;;
22480;SDS011;11407;56.964;-2.212;2022-09-01T14:26:12;4.10;;;1.77;;
22480;SDS011;11407;56.964;-2.212;2022-09-01T14:28:39;2.13;;;1.30;;
22480;SDS011;11407;56.964;-2.212;2022-09-01T14:31:11;2.10;;;1.40;;
22480;SDS011;11407;56.964;-2.212;2022-09-01T14:33:38;1.80;;;1.40;;
22480;SDS011;11407;56.964;-2.212;2022-09-01T14:36:04;2.17;;;1.37;;
22480;SDS011;11407;56.964;-2.212;2022-09-01T14:38:31;2.30;;;1.60;;
22480;SDS011;11407;56.964;-2.212;2022-09-01T14:40:57;2.00;;;1.30;;
22480;SDS011;11407;56.964;-2.212;2022-09-01T14:43:23;2.63;;;1.37;;
22480;SDS011;11407;56.964;-2.212;2022-09-01T14:45:49;1.50;;;1.20;;
22480;SDS011;11407;56.964;-2.212;2022-09-01T14:48:16;1.73;;;1.20;;
22480;SDS011;11407;56.964;-2.212;2022-09-01T14:50:47;1.40;;;1.30;;
22480;SDS011;11407;56.964;-2.212;2022-09-01T14:53:13;2.00;;;1.27;;
22480;SDS011;11407;56.964;-2.212;2022-09-01T14:55:39;3.53;;;1.20;;
22480;SDS011;11407;56.964;-2.212;2022-09-01T14:58:05;2.23;;;1.30;;
22480;SDS011;11407;56.964;-2.212;2022-09-01T15:00:31;1.40;;;1.10;;
22480;SDS011;11407;56.964;-2.212;2022-09-01T15:02:59;1.77;;;1.20;;
22480;SDS011;11407;56.964;-2.212;2022-09-01T15:05:25;2.03;;;1.17;;
22480;SDS011;11407;56.964;-2.212;2022-09-01T15:07:51;1.47;;;0.97;;
22480;SDS011;11407;56.964;-2.212;2022-09-01T15:10:18;4.60;;;1.30;;
22480;SDS011;11407;56.964;-2.212;2022-09-01T15:12:46;1.77;;;1.10;;
22480;SDS011;11407;56.964;-2.212;2022-09-01T15:15:13;2.07;;;1.20;;
22480;SDS011;11407;56.964;-2.212;2022-09-01T15:17:40;2.50;;;1.40;;
22480;SDS011;11407;56.964;-2.212;2022-09-01T15:20:07;1.60;;;1.00;;
22480;SDS011;11407;56.964;-2.212;2022-09-01T15:22:51;1.77;;;1.27;;
22480;SDS011;11407;56.964;-2.212;2022-09-01T15:25:17;1.90;;;1.30;;
22480;SDS011;11407;56.964;-2.212;2022-09-01T15:27:43;1.60;;;1.20;;
22480;SDS011;11407;56.964;-2.212;2022-09-01T15:30:09;2.83;;;1.30;;
22480;SDS011;11407;56.964;-2.212;2022-09-01T15:32:42;1.87;;;1.10;;
22480;SDS011;11407;56.964;-2.212;2022-09-01T15:35:09;2.70;;;1.20;;
22480;SDS011;11407;56.964;-2.212;2022-09-01T15:37:35;2.90;;;1.23;;
22480;SDS011;11407;56.964;-2.212;2022-09-01T15:40:00;6.70;;;1.60;;
22480;SDS011;11407;56.964;-2.212;2022-09-01T15:42:26;6.90;;;1.60;;
22480;SDS011;11407;56.964;-2.212;2022-09-01T15:44:51;1.93;;;1.30;;
22480;SDS011;11407;56.964;-2.212;2022-09-01T15:47:17;2.27;;;1.20;;
22480;SDS011;11407;56.964;-2.212;2022-09-01T15:49:42;1.50;;;1.37;;
22480;SDS011;11407;56.964;-2.212;2022-09-01T15:52:08;22.97;;;2.70;;
22480;SDS011;11407;56.964;-2.212;2022-09-01T15:54:35;12.43;;;2.00;;
22480;SDS011;11407;56.964;-2.212;2022-09-01T15:57:02;2.30;;;1.30;;
22480;SDS011;11407;56.964;-2.212;2022-09-01T15:59:28;3.77;;;1.47;;
22480;SDS011;11407;56.964;-2.212;2022-09-01T16:01:54;1.87;;;1.20;;
22480;SDS011;11407;56.964;-2.212;2022-09-01T16:04:19;4.43;;;1.60;;
22480;SDS011;11407;56.964;-2.212;2022-09-01T16:06:45;2.27;;;1.40;;
22480;SDS011;11407;56.964;-2.212;2022-09-01T16:09:11;2.70;;;1.40;;
22480;SDS011;11407;56.964;-2.212;2022-09-01T16:11:38;1.30;;;1.20;;
22480;SDS011;11407;56.964;-2.212;2022-09-01T16:14:04;1.67;;;1.30;;